sensor_id;sensor_type;location;lat;lon;timestamp;pressure;altitude;pressure_sealevel;temperature;humidity
14232;BME280;7200;52.194;9.900;2022-09-09T04:02:19;99852.34;;;14.93;100.00
14232;BME280;7200;52.194;9.900;2022-09-09T04:04:44;99860.97;;;14.97;100.00
14232;BME280;7200;52.194;9.900;2022-09-09T04:07:09;99863.53;;;14.98;100.00
14232;BME280;7200;52.194;9.900;2022-09-09T04:09:36;99857.06;;;15.03;100.00
14232;BME280;7200;52.194;9.900;2022-09-09T04:12:02;99864.84;;;15.06;100.00
14232;BME280;7200;52.194;9.900;2022-09-09T04:14:27;99867.69;;;15.03;100.00
14232;BME280;7200;52.194;9.900;2022-09-09T04:16:54;99881.34;;;15.11;100.00
14232;BME280;7200;52.194;9.900;2022-09-09T04:19:19;99873.38;;;15.11;100.00
14232;BME280;7200;52.194;9.900;2022-09-09T04:21:44;99871.38;;;15.14;100.00
14232;BME280;7200;52.194;9.900;2022-09-09T04:24:10;99868.72;;;15.14;100.00
14232;BME280;7200;52.194;9.900;2022-09-09T04:26:36;99861.19;;;15.21;100.00
14232;BME280;7200;52.194;9.900;2022-09-09T04:29:03;99861.09;;;15.23;100.00
14232;BME280;7200;52.194;9.900;2022-09-09T04:31:28;99864.50;;;15.25;100.00
14232;BME280;7200;52.194;9.900;2022-09-09T04:33:54;99854.53;;;15.28;100.00
14232;BME280;7200;52.194;9.900;2022-09-09T04:36:19;99859.94;;;15.27;100.00
14232;BME280;7200;52.194;9.900;2022-09-09T04:38:45;99870.56;;;15.27;100.00
14232;BME280;7200;52.194;9.900;2022-09-09T04:41:12;99869.50;;;15.29;100.00
14232;BME280;7200;52.194;9.900;2022-09-09T04:43:38;99869.50;;;15.29;100.00
14232;BME280;7200;52.194;9.900;2022-09-09T04:46:04;99860.25;;;15.22;100.00
14232;BME280;7200;52.194;9.900;2022-09-09T04:48:30;99864.50;;;15.25;100.00
14232;BME280;7200;52.194;9.900;2022-09-09T04:51:02;99861.09;;;15.23;100.00
14232;BME280;7200;52.194;9.900;2022-09-09T04:53:28;99862.78;;;15.24;100.00
14232;BME280;7200;52.194;9.900;2022-09-09T04:56:11;99874.63;;;15.32;100.00
14232;BME280;7200;52.194;9.900;2022-09-09T04:58:40;99872.28;;;15.28;100.00
14232;BME280;7200;52.194;9.900;2022-09-09T05:03:36;99875.72;;;15.30;100.00
14232;BME280;7200;52.194;9.900;2022-09-09T05:06:05;99874.34;;;15.37;100.00
14232;BME280;7200;52.194;9.900;2022-09-09T05:08:31;99876.13;;;15.36;100.00
14232;BME280;7200;52.194;9.900;2022-09-09T05:10:57;99875.75;;;15.43;100.00
14232;BME280;7200;52.194;9.900;2022-09-09T05:13:24;99870.63;;;15.40;100.00
14232;BME280;7200;52.194;9.900;2022-09-09T05:15:53;99874.03;;;15.42;100.00
14232;BME280;7200;52.194;9.900;2022-09-09T05:18:19;99877.16;;;15.48;100.00
14232;BME280;7200;52.194;9.900;2022-09-09T05:20:45;99873.19;;;15.41;100.00
14232;BME280;7200;52.194;9.900;2022-09-09T05:23:10;99876.03;;;15.38;100.00
14232;BME280;7200;52.194;9.900;2022-09-09T05:25:37;99874.03;;;15.42;100.00
14232;BME280;7200;52.194;9.900;2022-09-09T05:28:02;99880.94;;;15.44;100.00
14232;BME280;7200;52.194;9.900;2022-09-09T05:30:28;99875.53;;;15.46;100.00
14232;BME280;7200;52.194;9.900;2022-09-09T05:32:56;99873.53;;;15.49;100.00
14232;BME280;7200;52.194;9.900;2022-09-09T05:35:21;99876.94;;;15.51;100.00
14232;BME280;7200;52.194;9.900;2022-09-09T05:37:48;99881.97;;;15.56;100.00
14232;BME280;7200;52.194;9.900;2022-09-09T05:40:13;99881.75;;;15.59;100.00
14232;BME280;7200;52.194;9.900;2022-09-09T05:42:39;99875.50;;;15.60;100.00
14232;BME280;7200;52.194;9.900;2022-09-09T05:45:06;99873.25;;;15.67;100.00
14232;BME280;7200;52.194;9.900;2022-09-09T05:47:32;99887.91;;;15.74;100.00
14232;BME280;7200;52.194;9.900;2022-09-09T05:49:58;99884.72;;;15.82;100.00
14232;BME280;7200;52.194;9.900;2022-09-09T05:52:23;99885.56;;;15.82;100.00
14232;BME280;7200;52.194;9.900;2022-09-09T05:54:50;99887.41;;;15.94;100.00
14232;BME280;7200;52.194;9.900;2022-09-09T05:57:16;99887.75;;;16.03;100.00
14232;BME280;7200;52.194;9.900;2022-09-09T05:59:41;99881.66;;;16.01;100.00
14232;BME280;7200;52.194;9.900;2022-09-09T06:02:08;99884.97;;;16.04;100.00
14232;BME280;7200;52.194;9.900;2022-09-09T06:04:33;99880.38;;;15.93;100.00
14232;BME280;7200;52.194;9.900;2022-09-09T06:06:59;99873.03;;;15.97;100.00
14232;BME280;7200;52.194;9.900;2022-09-09T06:09:24;99882.97;;;16.08;100.00
14232;BME280;7200;52.194;9.900;2022-09-09T06:11:50;99886.72;;;16.18;100.00
14232;BME280;7200;52.194;9.900;2022-09-09T06:14:15;99897.56;;;16.28;100.00
14232;BME280;7200;52.194;9.900;2022-09-09T06:16:42;99886.19;;;16.26;100.00
14232;BME280;7200;52.194;9.900;2022-09-09T06:19:09;99889.16;;;16.34;100.00
14232;BME280;7200;52.194;9.900;2022-09-09T06:21:36;99894.25;;;16.50;100.00
14232;BME280;7200;52.194;9.900;2022-09-09T06:24:05;99887.88;;;16.52;100.00
14232;BME280;7200;52.194;9.900;2022-09-09T06:26:38;99877.34;;;16.51;100.00
14232;BME280;7200;52.194;9.900;2022-09-09T06:29:07;99882.13;;;16.59;100.00
14232;BME280;7200;52.194;9.900;2022-09-09T06:31:34;99888.47;;;16.82;100.00
14232;BME280;7200;52.194;9.900;2022-09-09T06:34:00;99891.97;;;17.08;100.00
14232;BME280;7200;52.194;9.900;2022-09-09T06:36:30;99879.81;;;17.17;100.00
14232;BME280;7200;52.194;9.900;2022-09-09T06:38:56;99877.78;;;17.20;100.00
14232;BME280;7200;52.194;9.900;2022-09-09T06:41:25;99868.56;;;17.24;100.00
14232;BME280;7200;52.194;9.900;2022-09-09T06:43:54;99848.13;;;17.12;100.00
14232;BME280;7200;52.194;9.900;2022-09-09T06:46:28;99844.59;;;17.24;100.00
14232;BME280;7200;52.194;9.900;2022-09-09T06:48:55;99844.31;;;17.16;100.00
14232;BME280;7200;52.194;9.900;2022-09-09T06:51:26;99858.59;;;17.39;100.00
14232;BME280;7200;52.194;9.900;2022-09-09T06:54:00;99859.84;;;17.46;100.00
14232;BME280;7200;52.194;9.900;2022-09-09T06:58:57;99860.91;;;17.92;100.00
14232;BME280;7200;52.194;9.900;2022-09-09T07:01:28;99871.53;;;18.16;100.00
14232;BME280;7200;52.194;9.900;2022-09-09T07:03:56;99859.13;;;18.15;100.00
14232;BME280;7200;52.194;9.900;2022-09-09T07:06:26;99852.53;;;17.97;100.00
14232;BME280;7200;52.194;9.900;2022-09-09T07:08:57;99858.75;;;17.97;100.00
14232;BME280;7200;52.194;9.900;2022-09-09T07:11:26;99854.59;;;18.04;100.00
14232;BME280;7200;52.194;9.900;2022-09-09T07:13:52;99854.88;;;18.13;100.00
14232;BME280;7200;52.194;9.900;2022-09-09T07:16:19;99854.78;;;18.14;100.00
14232;BME280;7200;52.194;9.900;2022-09-09T07:18:45;99851.47;;;18.11;100.00
14232;BME280;7200;52.194;9.900;2022-09-09T07:21:12;99842.56;;;17.99;100.00
14232;BME280;7200;52.194;9.900;2022-09-09T07:23:38;99837.53;;;17.83;100.00
14232;BME280;7200;52.194;9.900;2022-09-09T07:26:09;99846.94;;;17.88;100.00
14232;BME280;7200;52.194;9.900;2022-09-09T07:28:35;99837.84;;;17.91;100.00
14232;BME280;7200;52.194;9.900;2022-09-09T07:31:02;99828.81;;;17.81;100.00
14232;BME280;7200;52.194;9.900;2022-09-09T07:33:29;99834.88;;;17.83;100.00
14232;BME280;7200;52.194;9.900;2022-09-09T07:36:21;99847.47;;;18.05;100.00
14232;BME280;7200;52.194;9.900;2022-09-09T07:38:58;99825.97;;;17.95;100.00
14232;BME280;7200;52.194;9.900;2022-09-09T07:43:51;99836.50;;;17.97;100.00
14232;BME280;7200;52.194;9.900;2022-09-09T07:46:21;99838.13;;;17.99;100.00
14232;BME280;7200;52.194;9.900;2022-09-09T07:48:57;99832.88;;;17.98;100.00
14232;BME280;7200;52.194;9.900;2022-09-09T07:51:26;99837.66;;;18.17;100.00
14232;BME280;7200;52.194;9.900;2022-09-09T07:53:54;99851.75;;;18.30;100.00
14232;BME280;7200;52.194;9.900;2022-09-09T07:56:20;99830.84;;;18.01;100.00
14232;BME280;7200;52.194;9.900;2022-09-09T07:58:50;99843.13;;;18.26;100.00
14232;BME280;7200;52.194;9.900;2022-09-09T08:03:46;99846.41;;;18.53;100.00
14232;BME280;7200;52.194;9.900;2022-09-09T08:06:12;99840.13;;;18.42;100.00
14232;BME280;7200;52.194;9.900;2022-09-09T08:08:39;99827.69;;;18.19;100.00
14232;BME280;7200;52.194;9.900;2022-09-09T08:11:11;99831.81;;;18.23;100.00
14232;BME280;7200;52.194;9.900;2022-09-09T08:13:38;99828.91;;;18.15;100.00
14232;BME280;7200;52.194;9.900;2022-09-09T08:16:19;99840.34;;;18.28;100.00
14232;BME280;7200;52.194;9.900;2022-09-09T08:18:52;99849.47;;;18.48;100.00
14232;BME280;7200;52.194;9.900;2022-09-09T08:21:21;99860.88;;;18.73;100.00
14232;BME280;7200;52.194;9.900;2022-09-09T08:23:47;99852.88;;;18.84;100.00
14232;BME280;7200;52.194;9.900;2022-09-09T08:26:15;99836.44;;;18.77;100.00
14232;BME280;7200;52.194;9.900;2022-09-09T08:28:42;99838.50;;;18.74;100.00
14232;BME280;7200;52.194;9.900;2022-09-09T08:31:16;99845.81;;;18.94;100.00
14232;BME280;7200;52.194;9.900;2022-09-09T08:33:43;99829.06;;;18.81;100.00
14232;BME280;7200;52.194;9.900;2022-09-09T08:36:13;99836.84;;;18.84;100.00
14232;BME280;7200;52.194;9.900;2022-09-09T08:38:40;99848.84;;;19.01;100.00
14232;BME280;7200;52.194;9.900;2022-09-09T08:47:03;99841.66;;;19.13;100.00
14232;BME280;7200;52.194;9.900;2022-09-09T08:49:48;99868.09;;;19.71;100.00
14232;BME280;7200;52.194;9.900;2022-09-09T08:52:21;99836.91;;;19.81;100.00
14232;BME280;7200;52.194;9.900;2022-09-09T08:54:47;99846.19;;;19.98;100.00
14232;BME280;7200;52.194;9.900;2022-09-09T08:57:24;99853.63;;;20.15;100.00
14232;BME280;7200;52.194;9.900;2022-09-09T08:59:54;99842.78;;;20.17;100.00
14232;BME280;7200;52.194;9.900;2022-09-09T09:03:02;99816.88;;;19.75;100.00
14232;BME280;7200;52.194;9.900;2022-09-09T09:05:37;99843.97;;;20.03;100.00
14232;BME280;7200;52.194;9.900;2022-09-09T09:08:20;99841.59;;;20.10;100.00
14232;BME280;7200;52.194;9.900;2022-09-09T09:10:51;99829.03;;;20.00;100.00
14232;BME280;7200;52.194;9.900;2022-09-09T09:13:23;99825.81;;;19.86;100.00
14232;BME280;7200;52.194;9.900;2022-09-09T09:15:55;99825.72;;;19.76;100.00
14232;BME280;7200;52.194;9.900;2022-09-09T09:18:23;99847.03;;;19.98;100.00
14232;BME280;7200;52.194;9.900;2022-09-09T09:20:58;99863.03;;;20.31;100.00
14232;BME280;7200;52.194;9.900;2022-09-09T09:23:37;99814.03;;;20.19;100.00
14232;BME280;7200;52.194;9.900;2022-09-09T09:26:07;99827.88;;;20.24;100.00
14232;BME280;7200;52.194;9.900;2022-09-09T09:28:34;99835.38;;;20.51;100.00
14232;BME280;7200;52.194;9.900;2022-09-09T09:31:06;99843.66;;;20.79;100.00
14232;BME280;7200;52.194;9.900;2022-09-09T09:34:05;99836.59;;;20.68;100.00
14232;BME280;7200;52.194;9.900;2022-09-09T09:36:45;99848.41;;;21.06;100.00
14232;BME280;7200;52.194;9.900;2022-09-09T09:39:26;99819.88;;;20.95;100.00
14232;BME280;7200;52.194;9.900;2022-09-09T09:41:52;99809.41;;;20.92;100.00
14232;BME280;7200;52.194;9.900;2022-09-09T09:44:27;99828.81;;;21.25;100.00
14232;BME280;7200;52.194;9.900;2022-09-09T09:47:05;99809.72;;;21.18;100.00
14232;BME280;7200;52.194;9.900;2022-09-09T09:49:32;99812.72;;;21.25;100.00
14232;BME280;7200;52.194;9.900;2022-09-09T09:52:02;99807.91;;;21.38;100.00
14232;BME280;7200;52.194;9.900;2022-09-09T09:54:30;99817.69;;;21.69;100.00
14232;BME280;7200;52.194;9.900;2022-09-09T09:57:08;99805.50;;;21.84;100.00
14232;BME280;7200;52.194;9.900;2022-09-09T09:59:35;99822.31;;;21.96;100.00
14232;BME280;7200;52.194;9.900;2022-09-09T10:02:21;99765.41;;;21.24;100.00
14232;BME280;7200;52.194;9.900;2022-09-09T10:05:01;99748.00;;;20.79;99.92
14232;BME280;7200;52.194;9.900;2022-09-09T10:07:26;99758.00;;;20.77;99.43
14232;BME280;7200;52.194;9.900;2022-09-09T10:09:54;99762.38;;;20.69;99.36
14232;BME280;7200;52.194;9.900;2022-09-09T10:12:45;99751.94;;;20.35;100.00
14232;BME280;7200;52.194;9.900;2022-09-09T10:20:51;99793.94;;;21.25;100.00
14232;BME280;7200;52.194;9.900;2022-09-09T10:26:11;99776.56;;;21.39;100.00
14232;BME280;7200;52.194;9.900;2022-09-09T10:29:36;99729.38;;;21.17;96.11
14232;BME280;7200;52.194;9.900;2022-09-09T10:32:21;99734.88;;;20.96;94.09
14232;BME280;7200;52.194;9.900;2022-09-09T10:45:54;99757.03;;;21.86;89.59
14232;BME280;7200;52.194;9.900;2022-09-09T10:48:47;99714.13;;;21.56;86.48
14232;BME280;7200;52.194;9.900;2022-09-09T10:57:04;99731.22;;;21.36;89.57
14232;BME280;7200;52.194;9.900;2022-09-09T10:59:34;99711.19;;;21.11;88.99
14232;BME280;7200;52.194;9.900;2022-09-09T11:04:40;99732.09;;;21.27;92.37
14232;BME280;7200;52.194;9.900;2022-09-09T11:07:10;99740.28;;;21.25;93.56
14232;BME280;7200;52.194;9.900;2022-09-09T11:09:50;99722.88;;;21.00;93.68
14232;BME280;7200;52.194;9.900;2022-09-09T11:12:19;99738.84;;;20.92;95.42
14232;BME280;7200;52.194;9.900;2022-09-09T11:14:53;99734.81;;;20.57;96.68
14232;BME280;7200;52.194;9.900;2022-09-09T11:17:24;99741.25;;;20.45;97.96
14232;BME280;7200;52.194;9.900;2022-09-09T11:19:52;99738.56;;;20.45;96.61
14232;BME280;7200;52.194;9.900;2022-09-09T11:22:32;99782.78;;;20.60;100.00
14232;BME280;7200;52.194;9.900;2022-09-09T11:25:09;99793.28;;;20.73;100.00
14232;BME280;7200;52.194;9.900;2022-09-09T11:27:56;99781.31;;;20.87;100.00
14232;BME280;7200;52.194;9.900;2022-09-09T11:41:53;99763.09;;;20.09;100.00
14232;BME280;7200;52.194;9.900;2022-09-09T11:44:27;99759.53;;;19.99;100.00
14232;BME280;7200;52.194;9.900;2022-09-09T11:46:53;99775.78;;;19.65;100.00
14232;BME280;7200;52.194;9.900;2022-09-09T11:49:42;99777.44;;;19.24;100.00
14232;BME280;7200;52.194;9.900;2022-09-09T11:52:18;99770.06;;;19.16;100.00
14232;BME280;7200;52.194;9.900;2022-09-09T11:54:47;99796.00;;;19.37;100.00
14232;BME280;7200;52.194;9.900;2022-09-09T11:57:35;99796.44;;;19.42;100.00
14232;BME280;7200;52.194;9.900;2022-09-09T12:00:01;99788.72;;;19.28;100.00
14232;BME280;7200;52.194;9.900;2022-09-09T12:02:28;99787.28;;;18.91;100.00
14232;BME280;7200;52.194;9.900;2022-09-09T12:05:13;99791.13;;;18.76;100.00
14232;BME280;7200;52.194;9.900;2022-09-09T12:07:42;99791.88;;;18.66;100.00
14232;BME280;7200;52.194;9.900;2022-09-09T12:10:27;99807.69;;;18.81;100.00
14232;BME280;7200;52.194;9.900;2022-09-09T12:12:54;99789.34;;;18.76;100.00
14232;BME280;7200;52.194;9.900;2022-09-09T12:15:23;99770.66;;;18.65;100.00
14232;BME280;7200;52.194;9.900;2022-09-09T12:17:52;99766.97;;;18.77;100.00
14232;BME280;7200;52.194;9.900;2022-09-09T12:20:37;99796.22;;;19.01;100.00
14232;BME280;7200;52.194;9.900;2022-09-09T12:24:03;99770.63;;;18.88;100.00
14232;BME280;7200;52.194;9.900;2022-09-09T12:26:28;99786.50;;;19.00;100.00
14232;BME280;7200;52.194;9.900;2022-09-09T12:32:16;99768.25;;;19.05;100.00
14232;BME280;7200;52.194;9.900;2022-09-09T12:34:55;99764.34;;;19.10;100.00
14232;BME280;7200;52.194;9.900;2022-09-09T12:37:35;99761.63;;;19.21;100.00
14232;BME280;7200;52.194;9.900;2022-09-09T12:40:04;99756.47;;;19.08;100.00
14232;BME280;7200;52.194;9.900;2022-09-09T12:42:30;99769.94;;;19.18;100.00
14232;BME280;7200;52.194;9.900;2022-09-09T12:45:03;99775.47;;;19.26;100.00
14232;BME280;7200;52.194;9.900;2022-09-09T12:47:56;99786.25;;;19.36;100.00
14232;BME280;7200;52.194;9.900;2022-09-09T12:50:25;99769.41;;;19.24;100.00
14232;BME280;7200;52.194;9.900;2022-09-09T12:52:54;99772.28;;;19.32;100.00
14232;BME280;7200;52.194;9.900;2022-09-09T12:55:39;99796.00;;;19.58;100.00
14232;BME280;7200;52.194;9.900;2022-09-09T12:58:05;99790.47;;;19.50;100.00
14232;BME280;7200;52.194;9.900;2022-09-09T13:00:33;99772.28;;;19.32;100.00
14232;BME280;7200;52.194;9.900;2022-09-09T13:03:00;99766.75;;;19.24;100.00
14232;BME280;7200;52.194;9.900;2022-09-09T13:05:38;99763.47;;;19.20;100.00
14232;BME280;7200;52.194;9.900;2022-09-09T13:08:09;99790.19;;;19.53;100.00
14232;BME280;7200;52.194;9.900;2022-09-09T13:10:39;99767.16;;;19.40;100.00
14232;BME280;7200;52.194;9.900;2022-09-09T13:13:15;99774.72;;;19.56;100.00
14232;BME280;7200;52.194;9.900;2022-09-09T13:15:58;99773.81;;;19.67;100.00
14232;BME280;7200;52.194;9.900;2022-09-09T13:18:29;99770.44;;;19.86;100.00
14232;BME280;7200;52.194;9.900;2022-09-09T13:20:56;99744.47;;;19.77;100.00
14232;BME280;7200;52.194;9.900;2022-09-09T13:23:31;99779.84;;;20.01;100.00
14232;BME280;7200;52.194;9.900;2022-09-09T13:26:24;99783.84;;;20.17;100.00
14232;BME280;7200;52.194;9.900;2022-09-09T13:28:50;99771.94;;;20.00;100.00
14232;BME280;7200;52.194;9.900;2022-09-09T13:31:28;99780.84;;;20.00;100.00
14232;BME280;7200;52.194;9.900;2022-09-09T13:33:54;99772.34;;;20.26;100.00
14232;BME280;7200;52.194;9.900;2022-09-09T13:36:31;99766.16;;;20.26;100.00
14232;BME280;7200;52.194;9.900;2022-09-09T13:38:59;99767.03;;;20.67;100.00
14232;BME280;7200;52.194;9.900;2022-09-09T13:41:29;99751.22;;;20.73;100.00
14232;BME280;7200;52.194;9.900;2022-09-09T13:43:56;99740.69;;;20.91;100.00
14232;BME280;7200;52.194;9.900;2022-09-09T13:46:38;99732.06;;;21.07;100.00
14232;BME280;7200;52.194;9.900;2022-09-09T13:51:46;99757.53;;;22.09;100.00
14232;BME280;7200;52.194;9.900;2022-09-09T13:54:15;99748.59;;;22.18;100.00
14232;BME280;7200;52.194;9.900;2022-09-09T13:56:42;99721.72;;;22.18;98.76
14232;BME280;7200;52.194;9.900;2022-09-09T13:59:15;99730.53;;;22.48;96.27
14232;BME280;7200;52.194;9.900;2022-09-09T14:04:07;99721.13;;;22.24;97.32
14232;BME280;7200;52.194;9.900;2022-09-09T14:06:34;99705.03;;;21.77;100.00
14232;BME280;7200;52.194;9.900;2022-09-09T14:09:02;99713.97;;;21.68;100.00
14232;BME280;7200;52.194;9.900;2022-09-09T14:11:28;99707.66;;;21.10;100.00
14232;BME280;7200;52.194;9.900;2022-09-09T14:13:53;99707.22;;;21.05;100.00
14232;BME280;7200;52.194;9.900;2022-09-09T14:16:18;99709.47;;;20.90;100.00
14232;BME280;7200;52.194;9.900;2022-09-09T14:18:45;99705.41;;;20.86;100.00
14232;BME280;7200;52.194;9.900;2022-09-09T14:21:11;99709.91;;;20.95;100.00
14232;BME280;7200;52.194;9.900;2022-09-09T14:23:37;99709.63;;;21.28;100.00
14232;BME280;7200;52.194;9.900;2022-09-09T14:26:04;99729.66;;;21.43;100.00
14232;BME280;7200;52.194;9.900;2022-09-09T14:28:30;99731.34;;;21.64;100.00
14232;BME280;7200;52.194;9.900;2022-09-09T14:30:59;99732.69;;;21.97;100.00
14232;BME280;7200;52.194;9.900;2022-09-09T14:33:28;99720.28;;;22.24;100.00
14232;BME280;7200;52.194;9.900;2022-09-09T14:35:59;99705.84;;;22.34;100.00
14232;BME280;7200;52.194;9.900;2022-09-09T14:38:25;99681.59;;;21.69;100.00
14232;BME280;7200;52.194;9.900;2022-09-09T14:40:53;99703.56;;;21.92;100.00
14232;BME280;7200;52.194;9.900;2022-09-09T14:43:19;99688.84;;;22.06;100.00
14232;BME280;7200;52.194;9.900;2022-09-09T14:45:45;99676.72;;;22.30;97.68
14232;BME280;7200;52.194;9.900;2022-09-09T14:48:11;99656.72;;;22.42;93.81
14232;BME280;7200;52.194;9.900;2022-09-09T14:50:36;99638.59;;;22.44;89.93
14232;BME280;7200;52.194;9.900;2022-09-09T14:53:05;99630.59;;;22.52;86.21
14232;BME280;7200;52.194;9.900;2022-09-09T14:55:30;99623.53;;;22.51;84.74
14232;BME280;7200;52.194;9.900;2022-09-09T14:57:56;99605.03;;;22.30;83.01
14232;BME280;7200;52.194;9.900;2022-09-09T15:00:22;99599.97;;;22.17;82.28
14232;BME280;7200;52.194;9.900;2022-09-09T15:02:54;99615.63;;;22.04;81.42
14232;BME280;7200;52.194;9.900;2022-09-09T15:05:20;99598.59;;;21.86;79.67
14232;BME280;7200;52.194;9.900;2022-09-09T15:07:45;99616.56;;;21.85;80.86
14232;BME280;7200;52.194;9.900;2022-09-09T15:10:12;99595.97;;;21.76;78.39
14232;BME280;7200;52.194;9.900;2022-09-09T15:12:37;99613.31;;;21.82;78.54
14232;BME280;7200;52.194;9.900;2022-09-09T15:15:04;99624.22;;;22.08;78.98
14232;BME280;7200;52.194;9.900;2022-09-09T15:17:30;99628.06;;;22.33;77.70
14232;BME280;7200;52.194;9.900;2022-09-09T15:19:56;99618.09;;;22.61;76.21
14232;BME280;7200;52.194;9.900;2022-09-09T15:22:21;99620.47;;;22.64;76.37
14232;BME280;7200;52.194;9.900;2022-09-09T15:24:47;99630.38;;;22.82;75.13
14232;BME280;7200;52.194;9.900;2022-09-09T15:27:12;99655.84;;;23.31;75.45
14232;BME280;7200;52.194;9.900;2022-09-09T15:29:39;99649.03;;;23.98;72.20
14232;BME280;7200;52.194;9.900;2022-09-09T15:32:05;99675.94;;;24.99;70.63
14232;BME280;7200;52.194;9.900;2022-09-09T15:34:30;99604.59;;;24.69;67.69
14232;BME280;7200;52.194;9.900;2022-09-09T15:36:56;99630.22;;;24.90;68.70
14232;BME280;7200;52.194;9.900;2022-09-09T15:39:21;99602.25;;;24.66;68.44
14232;BME280;7200;52.194;9.900;2022-09-09T15:41:48;99621.13;;;24.91;69.09
14232;BME280;7200;52.194;9.900;2022-09-09T15:44:14;99620.28;;;25.15;67.96
14232;BME280;7200;52.194;9.900;2022-09-09T15:46:58;99618.41;;;24.82;68.46
14232;BME280;7200;52.194;9.900;2022-09-09T15:49:25;99633.47;;;25.26;68.07
14232;BME280;7200;52.194;9.900;2022-09-09T15:51:56;99627.84;;;25.44;67.91
14232;BME280;7200;52.194;9.900;2022-09-09T15:54:24;99629.88;;;25.42;68.88
14232;BME280;7200;52.194;9.900;2022-09-09T15:56:54;99576.09;;;24.66;67.65
14232;BME280;7200;52.194;9.900;2022-09-09T15:59:22;99588.75;;;23.99;69.74
14232;BME280;7200;52.194;9.900;2022-09-09T16:01:47;99607.91;;;23.61;72.19
14232;BME280;7200;52.194;9.900;2022-09-09T16:04:16;99628.50;;;24.05;71.79
14232;BME280;7200;52.194;9.900;2022-09-09T16:06:48;99616.16;;;24.37;69.17
14232;BME280;7200;52.194;9.900;2022-09-09T16:09:13;99637.34;;;24.91;69.04
14232;BME280;7200;52.194;9.900;2022-09-09T16:11:38;99654.09;;;25.75;67.52
14232;BME280;7200;52.194;9.900;2022-09-09T16:14:04;99632.13;;;25.30;69.01
14232;BME280;7200;52.194;9.900;2022-09-09T16:16:31;99633.28;;;24.95;69.53
14232;BME280;7200;52.194;9.900;2022-09-09T16:18:58;99620.47;;;24.89;70.16
14232;BME280;7200;52.194;9.900;2022-09-09T16:21:29;99625.84;;;24.80;69.54
14232;BME280;7200;52.194;9.900;2022-09-09T16:23:56;99641.69;;;24.92;70.44
14232;BME280;7200;52.194;9.900;2022-09-09T16:26:22;99614.22;;;24.80;68.61
14232;BME280;7200;52.194;9.900;2022-09-09T16:28:48;99607.97;;;24.55;69.26
14232;BME280;7200;52.194;9.900;2022-09-09T16:31:21;99618.47;;;24.23;71.26
14232;BME280;7200;52.194;9.900;2022-09-09T16:33:47;99605.97;;;23.71;72.74
14232;BME280;7200;52.194;9.900;2022-09-09T16:36:15;99604.81;;;23.22;74.68
14232;BME280;7200;52.194;9.900;2022-09-09T16:38:41;99605.13;;;22.57;78.07
14232;BME280;7200;52.194;9.900;2022-09-09T16:41:09;99609.72;;;22.19;81.35
14232;BME280;7200;52.194;9.900;2022-09-09T16:43:35;99585.56;;;21.91;79.99
14232;BME280;7200;52.194;9.900;2022-09-09T16:46:02;99589.91;;;21.74;79.65
14232;BME280;7200;52.194;9.900;2022-09-09T16:48:34;99603.66;;;21.61;81.99
14232;BME280;7200;52.194;9.900;2022-09-09T16:51:07;99613.41;;;21.52;81.50
14232;BME280;7200;52.194;9.900;2022-09-09T16:53:33;99572.25;;;21.24;81.26
14232;BME280;7200;52.194;9.900;2022-09-09T16:56:17;99607.25;;;21.32;81.92
14232;BME280;7200;52.194;9.900;2022-09-09T16:58:49;99597.25;;;21.15;82.41
14232;BME280;7200;52.194;9.900;2022-09-09T17:01:15;99608.84;;;21.15;83.21
14232;BME280;7200;52.194;9.900;2022-09-09T17:03:40;99625.09;;;21.14;84.14
14232;BME280;7200;52.194;9.900;2022-09-09T17:06:10;99610.25;;;21.00;85.78
14232;BME280;7200;52.194;9.900;2022-09-09T17:08:37;99608.03;;;20.86;85.48
14232;BME280;7200;52.194;9.900;2022-09-09T17:11:02;99590.97;;;20.77;83.88
14232;BME280;7200;52.194;9.900;2022-09-09T17:13:29;99612.28;;;20.69;85.65
14232;BME280;7200;52.194;9.900;2022-09-09T17:15:55;99615.22;;;20.66;85.17
14232;BME280;7200;52.194;9.900;2022-09-09T17:18:20;99645.84;;;20.73;88.27
14232;BME280;7200;52.194;9.900;2022-09-09T17:20:45;99636.81;;;20.64;88.75
14232;BME280;7200;52.194;9.900;2022-09-09T17:23:11;99639.56;;;20.53;90.70
14232;BME280;7200;52.194;9.900;2022-09-09T17:25:40;99626.59;;;20.38;90.41
14232;BME280;7200;52.194;9.900;2022-09-09T17:28:06;99609.13;;;20.34;86.71
14232;BME280;7200;52.194;9.900;2022-09-09T17:30:35;99605.88;;;20.31;86.72
14232;BME280;7200;52.194;9.900;2022-09-09T17:33:02;99624.31;;;20.34;88.34
14232;BME280;7200;52.194;9.900;2022-09-09T17:35:28;99624.63;;;20.31;88.71
14232;BME280;7200;52.194;9.900;2022-09-09T17:37:55;99644.06;;;20.33;90.11
14232;BME280;7200;52.194;9.900;2022-09-09T17:40:21;99639.25;;;20.27;89.59
14232;BME280;7200;52.194;9.900;2022-09-09T17:42:46;99641.38;;;20.23;90.24
14232;BME280;7200;52.194;9.900;2022-09-09T17:45:12;99644.31;;;20.20;91.03
14232;BME280;7200;52.194;9.900;2022-09-09T17:47:38;99632.06;;;20.17;90.29
14232;BME280;7200;52.194;9.900;2022-09-09T17:50:04;99642.59;;;20.09;91.25
14232;BME280;7200;52.194;9.900;2022-09-09T17:52:29;99649.91;;;20.07;93.58
14232;BME280;7200;52.194;9.900;2022-09-09T17:54:55;99642.69;;;19.98;93.49
14232;BME280;7200;52.194;9.900;2022-09-09T17:57:22;99653.28;;;19.99;94.03
14232;BME280;7200;52.194;9.900;2022-09-09T17:59:47;99657.66;;;20.00;94.05
14232;BME280;7200;52.194;9.900;2022-09-09T18:02:12;99663.56;;;20.04;95.05
14232;BME280;7200;52.194;9.900;2022-09-09T18:04:38;99664.41;;;19.95;96.08
14232;BME280;7200;52.194;9.900;2022-09-09T18:07:04;99662.38;;;19.87;95.73
14232;BME280;7200;52.194;9.900;2022-09-09T18:09:30;99666.84;;;19.77;97.45
14232;BME280;7200;52.194;9.900;2022-09-09T18:11:57;99660.91;;;19.73;96.71
14232;BME280;7200;52.194;9.900;2022-09-09T18:14:25;99662.97;;;19.70;97.34
14232;BME280;7200;52.194;9.900;2022-09-09T18:16:52;99663.97;;;19.69;96.28
14232;BME280;7200;52.194;9.900;2022-09-09T18:19:20;99663.06;;;19.58;97.12
14232;BME280;7200;52.194;9.900;2022-09-09T18:21:47;99646.28;;;19.56;93.97
14232;BME280;7200;52.194;9.900;2022-09-09T18:24:14;99658.41;;;19.60;93.52